sensor_id;sensor_type;location;lat;lon;timestamp;pressure;altitude;pressure_sealevel;temperature;humidity
42691;BME280;28306;55.744;37.578;2023-02-18T00:00:24;99887.06;;;25.92;14.48
42691;BME280;28306;55.744;37.578;2023-02-18T00:02:49;99892.53;;;25.92;14.28
42691;BME280;28306;55.744;37.578;2023-02-18T00:05:15;99890.63;;;25.93;14.28
42691;BME280;28306;55.744;37.578;2023-02-18T00:07:40;99883.25;;;25.93;14.29
42691;BME280;28306;55.744;37.578;2023-02-18T00:10:07;99878.34;;;25.90;14.60
42691;BME280;28306;55.744;37.578;2023-02-18T00:12:33;99872.63;;;25.92;14.35
42691;BME280;28306;55.744;37.578;2023-02-18T00:14:58;99871.81;;;25.91;14.23
42691;BME280;28306;55.744;37.578;2023-02-18T00:17:24;99870.72;;;25.92;14.53
42691;BME280;28306;55.744;37.578;2023-02-18T00:19:50;99869.09;;;25.91;14.50
42691;BME280;28306;55.744;37.578;2023-02-18T00:22:15;99862.78;;;25.90;14.60
42691;BME280;28306;55.744;37.578;2023-02-18T00:24:41;99866.63;;;25.89;14.40
42691;BME280;28306;55.744;37.578;2023-02-18T00:27:06;99857.88;;;25.87;14.36
42691;BME280;28306;55.744;37.578;2023-02-18T00:29:32;99862.25;;;25.88;14.46
42691;BME280;28306;55.744;37.578;2023-02-18T00:31:57;99857.63;;;25.89;14.29
42691;BME280;28306;55.744;37.578;2023-02-18T00:34:23;99854.88;;;25.89;14.35
42691;BME280;28306;55.744;37.578;2023-02-18T00:36:48;99848.34;;;25.90;14.47
42691;BME280;28306;55.744;37.578;2023-02-18T00:39:13;99850.28;;;25.89;14.29
42691;BME280;28306;55.744;37.578;2023-02-18T00:41:39;99852.16;;;25.89;14.29
42691;BME280;28306;55.744;37.578;2023-02-18T00:44:05;99851.34;;;25.88;14.44
42691;BME280;28306;55.744;37.578;2023-02-18T00:46:32;99842.38;;;25.88;14.37
42691;BME280;28306;55.744;37.578;2023-02-18T00:48:59;99836.06;;;25.87;14.42
42691;BME280;28306;55.744;37.578;2023-02-18T00:51:25;99834.44;;;25.86;14.33
42691;BME280;28306;55.744;37.578;2023-02-18T00:53:50;99838.78;;;25.87;14.37
42691;BME280;28306;55.744;37.578;2023-02-18T00:56:17;99839.63;;;25.88;14.43
42691;BME280;28306;55.744;37.578;2023-02-18T00:58:43;99836.91;;;25.88;14.20
42691;BME280;28306;55.744;37.578;2023-02-18T01:01:08;99830.63;;;25.87;14.21
42691;BME280;28306;55.744;37.578;2023-02-18T01:03:35;99831.47;;;25.88;14.27
42691;BME280;28306;55.744;37.578;2023-02-18T01:06:00;99818.91;;;25.87;14.51
42691;BME280;28306;55.744;37.578;2023-02-18T01:08:26;99815.09;;;25.88;14.36
42691;BME280;28306;55.744;37.578;2023-02-18T01:10:52;99811.53;;;25.87;14.27
42691;BME280;28306;55.744;37.578;2023-02-18T01:13:18;99803.38;;;25.87;14.30
42691;BME280;28306;55.744;37.578;2023-02-18T01:15:43;99784.56;;;25.86;14.16
42691;BME280;28306;55.744;37.578;2023-02-18T01:18:10;99784.81;;;25.84;14.36
42691;BME280;28306;55.744;37.578;2023-02-18T01:20:36;99779.38;;;25.84;14.14
42691;BME280;28306;55.744;37.578;2023-02-18T01:23:03;99777.47;;;25.85;14.49
42691;BME280;28306;55.744;37.578;2023-02-18T01:25:29;99765.75;;;25.84;14.17
42691;BME280;28306;55.744;37.578;2023-02-18T01:27:54;99762.75;;;25.86;14.28
42691;BME280;28306;55.744;37.578;2023-02-18T01:30:21;99761.94;;;25.85;14.19
42691;BME280;28306;55.744;37.578;2023-02-18T01:32:47;99755.94;;;25.83;14.12
42691;BME280;28306;55.744;37.578;2023-02-18T01:35:16;99754.84;;;25.84;14.45
42691;BME280;28306;55.744;37.578;2023-02-18T01:37:42;99753.22;;;25.83;14.15
42691;BME280;28306;55.744;37.578;2023-02-18T01:40:10;99741.47;;;25.83;14.31
42691;BME280;28306;55.744;37.578;2023-02-18T01:42:36;99749.91;;;25.81;14.21
42691;BME280;28306;55.744;37.578;2023-02-18T01:47:46;99740.94;;;25.81;14.45
42691;BME280;28306;55.744;37.578;2023-02-18T01:50:12;99733.84;;;25.80;14.07
42691;BME280;28306;55.744;37.578;2023-02-18T01:52:37;99729.50;;;25.79;14.31
42691;BME280;28306;55.744;37.578;2023-02-18T01:55:05;99719.66;;;25.78;14.39
42691;BME280;28306;55.744;37.578;2023-02-18T01:57:34;99716.94;;;25.78;14.40
42691;BME280;28306;55.744;37.578;2023-02-18T02:00:05;99724.03;;;25.79;14.29
42691;BME280;28306;55.744;37.578;2023-02-18T02:02:41;99712.31;;;25.78;14.15
42691;BME280;28306;55.744;37.578;2023-02-18T02:05:08;99714.22;;;25.78;14.06
42691;BME280;28306;55.744;37.578;2023-02-18T02:07:35;99707.97;;;25.77;14.10
42691;BME280;28306;55.744;37.578;2023-02-18T02:10:01;99709.03;;;25.76;14.39
42691;BME280;28306;55.744;37.578;2023-02-18T02:20:17;99691.88;;;25.76;14.33
42691;BME280;28306;55.744;37.578;2023-02-18T02:28:07;99680.97;;;25.76;14.04
42691;BME280;28306;55.744;37.578;2023-02-18T02:33:17;99680.16;;;25.75;14.05
42691;BME280;28306;55.744;37.578;2023-02-18T02:38:31;99686.44;;;25.76;14.18
42691;BME280;28306;55.744;37.578;2023-02-18T02:43:26;99683.13;;;25.73;14.19
42691;BME280;28306;55.744;37.578;2023-02-18T02:48:28;99676.34;;;25.71;14.06
42691;BME280;28306;55.744;37.578;2023-02-18T02:53:23;99657.25;;;25.71;14.18
42691;BME280;28306;55.744;37.578;2023-02-18T02:55:50;99655.34;;;25.71;14.25
42691;BME280;28306;55.744;37.578;2023-02-18T02:58:18;99650.97;;;25.70;14.15
42691;BME280;28306;55.744;37.578;2023-02-18T03:03:22;99649.63;;;25.73;14.07
42691;BME280;28306;55.744;37.578;2023-02-18T03:05:54;99637.09;;;25.72;14.24
42691;BME280;28306;55.744;37.578;2023-02-18T03:11:10;99620.72;;;25.72;14.25
42691;BME280;28306;55.744;37.578;2023-02-18T03:16:22;99621.56;;;25.72;14.04
42691;BME280;28306;55.744;37.578;2023-02-18T03:23:51;99618.84;;;25.72;14.04
42691;BME280;28306;55.744;37.578;2023-02-18T03:26:18;99618.84;;;25.72;13.97
42691;BME280;28306;55.744;37.578;2023-02-18T03:28:48;99609.03;;;25.71;14.30
42691;BME280;28306;55.744;37.578;2023-02-18T03:31:17;99595.41;;;25.71;14.13
42691;BME280;28306;55.744;37.578;2023-02-18T03:33:46;99593.47;;;25.72;14.08
42691;BME280;28306;55.744;37.578;2023-02-18T03:36:13;99594.59;;;25.71;14.07
42691;BME280;28306;55.744;37.578;2023-02-18T03:41:08;99582.31;;;25.68;14.09
42691;BME280;28306;55.744;37.578;2023-02-18T03:43:35;99570.63;;;25.68;13.98
42691;BME280;28306;55.744;37.578;2023-02-18T03:46:01;99568.69;;;25.68;14.12
42691;BME280;28306;55.744;37.578;2023-02-18T03:48:27;99567.88;;;25.68;14.11
42691;BME280;28306;55.744;37.578;2023-02-18T03:50:52;99564.88;;;25.69;14.09
42691;BME280;28306;55.744;37.578;2023-02-18T03:53:18;99561.63;;;25.67;14.14
42691;BME280;28306;55.744;37.578;2023-02-18T03:55:43;99557.25;;;25.66;14.27
42691;BME280;28306;55.744;37.578;2023-02-18T03:58:09;99556.44;;;25.66;14.08
42691;BME280;28306;55.744;37.578;2023-02-18T04:00:34;99555.63;;;25.65;14.09
42691;BME280;28306;55.744;37.578;2023-02-18T04:03:00;99555.88;;;25.64;14.03
42691;BME280;28306;55.744;37.578;2023-02-18T04:05:25;99542.25;;;25.64;14.06
42691;BME280;28306;55.744;37.578;2023-02-18T04:07:51;99549.63;;;25.63;14.07
42691;BME280;28306;55.744;37.578;2023-02-18T04:10:16;99547.19;;;25.62;14.13
42691;BME280;28306;55.744;37.578;2023-02-18T04:12:42;99532.47;;;25.63;14.26
42691;BME280;28306;55.744;37.578;2023-02-18T04:15:07;99534.38;;;25.62;14.05
42691;BME280;28306;55.744;37.578;2023-02-18T04:17:33;99524.31;;;25.63;14.02
42691;BME280;28306;55.744;37.578;2023-02-18T04:19:58;99527.84;;;25.63;13.95
42691;BME280;28306;55.744;37.578;2023-02-18T04:22:24;99524.31;;;25.63;14.03
42691;BME280;28306;55.744;37.578;2023-02-18T04:24:49;99507.13;;;25.62;14.19
42691;BME280;28306;55.744;37.578;2023-02-18T04:27:15;99505.50;;;25.61;14.26
42691;BME280;28306;55.744;37.578;2023-02-18T04:29:40;99509.31;;;25.60;14.23
42691;BME280;28306;55.744;37.578;2023-02-18T04:32:06;99497.59;;;25.60;14.14
42691;BME280;28306;55.744;37.578;2023-02-18T04:34:31;99498.69;;;25.59;14.09
42691;BME280;28306;55.744;37.578;2023-02-18T04:36:57;99491.31;;;25.59;14.34
42691;BME280;28306;55.744;37.578;2023-02-18T04:39:22;99497.88;;;25.58;14.21
42691;BME280;28306;55.744;37.578;2023-02-18T04:41:48;99491.31;;;25.59;14.08
42691;BME280;28306;55.744;37.578;2023-02-18T04:44:13;99487.78;;;25.59;14.09
42691;BME280;28306;55.744;37.578;2023-02-18T04:46:38;99485.06;;;25.59;14.25
42691;BME280;28306;55.744;37.578;2023-02-18T04:49:04;99488.59;;;25.59;14.07
42691;BME280;28306;55.744;37.578;2023-02-18T04:51:30;99473.91;;;25.55;14.21
42691;BME280;28306;55.744;37.578;2023-02-18T04:53:55;99482.63;;;25.57;14.23
42691;BME280;28306;55.744;37.578;2023-02-18T04:56:20;99477.16;;;25.57;14.12
42691;BME280;28306;55.744;37.578;2023-02-18T04:58:46;99479.09;;;25.57;14.07
42691;BME280;28306;55.744;37.578;2023-02-18T05:01:11;99481.81;;;25.57;14.23
42691;BME280;28306;55.744;37.578;2023-02-18T05:03:37;99474.72;;;25.56;14.20
42691;BME280;28306;55.744;37.578;2023-02-18T05:06:03;99474.72;;;25.56;14.28
42691;BME280;28306;55.744;37.578;2023-02-18T05:08:28;99480.16;;;25.56;14.14
42691;BME280;28306;55.744;37.578;2023-02-18T05:10:54;99474.72;;;25.56;14.24
42691;BME280;28306;55.744;37.578;2023-02-18T05:13:19;99461.09;;;25.56;14.21
42691;BME280;28306;55.744;37.578;2023-02-18T05:15:47;99461.09;;;25.56;14.34
42691;BME280;28306;55.744;37.578;2023-02-18T05:18:13;99457.28;;;25.57;14.28
42691;BME280;28306;55.744;37.578;2023-02-18T05:20:39;99451.84;;;25.57;14.13
42691;BME280;28306;55.744;37.578;2023-02-18T05:23:05;99453.72;;;25.56;14.21
42691;BME280;28306;55.744;37.578;2023-02-18T05:25:31;99449.13;;;25.57;14.22
42691;BME280;28306;55.744;37.578;2023-02-18T05:27:56;99445.56;;;25.56;14.10
42691;BME280;28306;55.744;37.578;2023-02-18T05:30:22;99442.81;;;25.56;14.10
42691;BME280;28306;55.744;37.578;2023-02-18T05:32:47;99440.94;;;25.57;13.91
42691;BME280;28306;55.744;37.578;2023-02-18T05:35:13;99432.78;;;25.57;14.13
42691;BME280;28306;55.744;37.578;2023-02-18T05:37:38;99428.94;;;25.58;14.25
42691;BME280;28306;55.744;37.578;2023-02-18T05:40:04;99424.59;;;25.57;14.09
42691;BME280;28306;55.744;37.578;2023-02-18T05:42:30;99422.41;;;25.59;14.12
42691;BME280;28306;55.744;37.578;2023-02-18T05:44:57;99413.44;;;25.58;13.99
42691;BME280;28306;55.744;37.578;2023-02-18T05:47:22;99412.59;;;25.58;14.10
42691;BME280;28306;55.744;37.578;2023-02-18T05:49:48;99407.69;;;25.60;14.13
42691;BME280;28306;55.744;37.578;2023-02-18T05:52:15;99398.69;;;25.59;14.25
42691;BME280;28306;55.744;37.578;2023-02-18T05:54:41;99391.09;;;25.61;14.02
42691;BME280;28306;55.744;37.578;2023-02-18T05:57:07;99389.16;;;25.62;13.95
42691;BME280;28306;55.744;37.578;2023-02-18T05:59:33;99388.88;;;25.63;14.15
42691;BME280;28306;55.744;37.578;2023-02-18T06:01:58;99381.00;;;25.62;14.09
42691;BME280;28306;55.744;37.578;2023-02-18T06:04:24;99377.19;;;25.63;14.13
42691;BME280;28306;55.744;37.578;2023-02-18T06:06:50;99381.78;;;25.62;14.00
42691;BME280;28306;55.744;37.578;2023-02-18T06:09:16;99381.00;;;25.62;13.93
42691;BME280;28306;55.744;37.578;2023-02-18T06:11:41;99379.06;;;25.62;14.22
42691;BME280;28306;55.744;37.578;2023-02-18T06:14:07;99372.53;;;25.63;14.06
42691;BME280;28306;55.744;37.578;2023-02-18T06:16:32;99370.63;;;25.64;14.19
42691;BME280;28306;55.744;37.578;2023-02-18T06:18:58;99370.63;;;25.64;14.24
42691;BME280;28306;55.744;37.578;2023-02-18T06:21:24;99368.72;;;25.64;14.00
42691;BME280;28306;55.744;37.578;2023-02-18T06:23:49;99365.16;;;25.64;14.06
42691;BME280;28306;55.744;37.578;2023-02-18T06:26:15;99361.38;;;25.65;13.96
42691;BME280;28306;55.744;37.578;2023-02-18T06:28:40;99359.44;;;25.65;13.89
42691;BME280;28306;55.744;37.578;2023-02-18T06:31:06;99361.09;;;25.66;14.04
42691;BME280;28306;55.744;37.578;2023-02-18T06:33:31;99360.00;;;25.67;13.95
42691;BME280;28306;55.744;37.578;2023-02-18T06:35:58;99356.97;;;25.69;14.20
42691;BME280;28306;55.744;37.578;2023-02-18T06:38:24;99349.63;;;25.69;13.94
42691;BME280;28306;55.744;37.578;2023-02-18T06:40:50;99346.63;;;25.71;13.85
42691;BME280;28306;55.744;37.578;2023-02-18T06:43:15;99340.06;;;25.72;13.86
42691;BME280;28306;55.744;37.578;2023-02-18T06:45:43;99338.97;;;25.73;14.07
42691;BME280;28306;55.744;37.578;2023-02-18T06:48:09;99336.25;;;25.73;13.97
42691;BME280;28306;55.744;37.578;2023-02-18T06:50:35;99328.91;;;25.73;13.93
42691;BME280;28306;55.744;37.578;2023-02-18T06:53:00;99322.63;;;25.73;13.91
42691;BME280;28306;55.744;37.578;2023-02-18T06:55:26;99320.44;;;25.75;13.98
42691;BME280;28306;55.744;37.578;2023-02-18T06:57:51;99320.44;;;25.75;13.88
42691;BME280;28306;55.744;37.578;2023-02-18T07:00:17;99315.81;;;25.76;13.97
42691;BME280;28306;55.744;37.578;2023-02-18T07:02:43;99308.19;;;25.78;14.05
42691;BME280;28306;55.744;37.578;2023-02-18T07:05:09;99296.47;;;25.77;13.99
42691;BME280;28306;55.744;37.578;2023-02-18T07:07:37;99299.72;;;25.79;14.09
42691;BME280;28306;55.744;37.578;2023-02-18T07:10:03;99297.00;;;25.79;14.03
42691;BME280;28306;55.744;37.578;2023-02-18T07:12:31;99288.53;;;25.81;13.79
42691;BME280;28306;55.744;37.578;2023-02-18T07:14:56;99283.91;;;25.81;14.05
42691;BME280;28306;55.744;37.578;2023-02-18T07:17:22;99289.06;;;25.83;13.80
42691;BME280;28306;55.744;37.578;2023-02-18T07:19:47;99280.09;;;25.82;13.90
42691;BME280;28306;55.744;37.578;2023-02-18T07:22:12;99276.00;;;25.85;13.86
42691;BME280;28306;55.744;37.578;2023-02-18T07:24:38;99261.53;;;25.84;14.01
42691;BME280;28306;55.744;37.578;2023-02-18T07:27:03;99279.53;;;25.85;13.91
42691;BME280;28306;55.744;37.578;2023-02-18T07:29:29;99276.53;;;25.87;13.81
42691;BME280;28306;55.744;37.578;2023-02-18T07:31:54;99263.97;;;25.86;14.03
42691;BME280;28306;55.744;37.578;2023-02-18T07:34:20;99258.25;;;25.87;13.78
42691;BME280;28306;55.744;37.578;2023-02-18T07:36:45;99255.25;;;25.89;14.00
42691;BME280;28306;55.744;37.578;2023-02-18T07:39:11;99256.88;;;25.90;13.72
42691;BME280;28306;55.744;37.578;2023-02-18T07:41:36;99246.78;;;25.90;14.03
42691;BME280;28306;55.744;37.578;2023-02-18T07:44:02;99245.69;;;25.92;13.89
42691;BME280;28306;55.744;37.578;2023-02-18T07:46:27;99242.16;;;25.91;13.84
42691;BME280;28306;55.744;37.578;2023-02-18T07:48:53;99234.78;;;25.92;13.90
42691;BME280;28306;55.744;37.578;2023-02-18T07:51:18;99224.69;;;25.92;14.02
42691;BME280;28306;55.744;37.578;2023-02-18T07:53:44;99232.06;;;25.92;13.72
42691;BME280;28306;55.744;37.578;2023-02-18T07:56:09;99232.88;;;25.92;13.91
42691;BME280;28306;55.744;37.578;2023-02-18T07:58:35;99220.59;;;25.95;13.69
42691;BME280;28306;55.744;37.578;2023-02-18T08:01:10;99213.22;;;25.95;13.71
42691;BME280;28306;55.744;37.578;2023-02-18T08:03:36;99215.69;;;25.97;13.93
42691;BME280;28306;55.744;37.578;2023-02-18T08:06:02;99213.81;;;25.97;13.70
42691;BME280;28306;55.744;37.578;2023-02-18T08:08:29;99204.53;;;25.98;13.68
42691;BME280;28306;55.744;37.578;2023-02-18T08:10:56;99199.06;;;25.98;13.73
42691;BME280;28306;55.744;37.578;2023-02-18T08:13:22;99197.97;;;25.99;13.81
42691;BME280;28306;55.744;37.578;2023-02-18T08:15:48;99199.91;;;25.99;13.69
42691;BME280;28306;55.744;37.578;2023-02-18T08:18:15;99187.06;;;25.99;13.61
42691;BME280;28306;55.744;37.578;2023-02-18T08:20:40;99186.00;;;26.00;13.83
42691;BME280;28306;55.744;37.578;2023-02-18T08:23:06;99179.41;;;26.01;14.00
42691;BME280;28306;55.744;37.578;2023-02-18T08:25:32;99178.31;;;26.02;13.65
42691;BME280;28306;55.744;37.578;2023-02-18T08:27:58;99174.50;;;26.03;13.98
42691;BME280;28306;55.744;37.578;2023-02-18T08:30:24;99181.88;;;26.03;13.79
42691;BME280;28306;55.744;37.578;2023-02-18T08:32:49;99167.44;;;26.02;13.62
42691;BME280;28306;55.744;37.578;2023-02-18T08:35:15;99168.50;;;26.01;13.92
42691;BME280;28306;55.744;37.578;2023-02-18T08:37:40;99168.00;;;25.99;13.73
42691;BME280;28306;55.744;37.578;2023-02-18T08:40:06;99155.44;;;25.98;14.00
42691;BME280;28306;55.744;37.578;2023-02-18T08:42:32;99149.72;;;26.00;13.74
42691;BME280;28306;55.744;37.578;2023-02-18T08:44:58;99152.16;;;26.01;13.88
42691;BME280;28306;55.744;37.578;2023-02-18T08:47:23;99140.16;;;26.02;13.81
42691;BME280;28306;55.744;37.578;2023-02-18T08:49:48;99131.69;;;26.04;13.78
42691;BME280;28306;55.744;37.578;2023-02-18T08:52:14;99121.59;;;26.04;13.86
42691;BME280;28306;55.744;37.578;2023-02-18T08:54:39;99129.50;;;26.06;13.83
42691;BME280;28306;55.744;37.578;2023-02-18T08:57:05;99122.13;;;26.06;13.82
42691;BME280;28306;55.744;37.578;2023-02-18T08:59:30;99122.66;;;26.08;13.61
42691;BME280;28306;55.744;37.578;2023-02-18T09:01:56;99114.50;;;26.08;13.65
42691;BME280;28306;55.744;37.578;2023-02-18T09:04:21;99111.47;;;26.10;13.74
42691;BME280;28306;55.744;37.578;2023-02-18T09:06:47;99108.47;;;26.12;13.84
42691;BME280;28306;55.744;37.578;2023-02-18T09:09:14;99104.63;;;26.13;13.85
42691;BME280;28306;55.744;37.578;2023-02-18T09:11:40;99100.28;;;26.12;13.61
42691;BME280;28306;55.744;37.578;2023-02-18T09:14:05;99089.66;;;26.10;13.66
42691;BME280;28306;55.744;37.578;2023-02-18T09:16:31;99079.84;;;26.09;13.65
42691;BME280;28306;55.744;37.578;2023-02-18T09:18:56;99083.66;;;26.08;13.85
42691;BME280;28306;55.744;37.578;2023-02-18T09:21:23;99086.41;;;26.08;13.91
42691;BME280;28306;55.744;37.578;2023-02-18T09:23:49;99083.38;;;26.10;13.88
42691;BME280;28306;55.744;37.578;2023-02-18T09:26:15;99077.66;;;26.11;13.97
42691;BME280;28306;55.744;37.578;2023-02-18T09:28:41;99063.22;;;26.11;13.67
42691;BME280;28306;55.744;37.578;2023-02-18T09:31:07;99056.66;;;26.12;13.79
42691;BME280;28306;55.744;37.578;2023-02-18T09:33:34;99056.38;;;26.13;13.54
42691;BME280;28306;55.744;37.578;2023-02-18T09:35:59;99044.06;;;26.16;13.64
42691;BME280;28306;55.744;37.578;2023-02-18T09:38:25;99038.31;;;26.17;13.54
42691;BME280;28306;55.744;37.578;2023-02-18T09:40:51;99036.94;;;26.20;13.59
42691;BME280;28306;55.744;37.578;2023-02-18T09:45:53;99026.81;;;26.25;13.60
42691;BME280;28306;55.744;37.578;2023-02-18T09:48:21;99028.13;;;26.28;13.83
42691;BME280;28306;55.744;37.578;2023-02-18T09:50:50;99029.75;;;26.29;13.85
42691;BME280;28306;55.744;37.578;2023-02-18T09:53:17;99009.56;;;26.30;13.48
42691;BME280;28306;55.744;37.578;2023-02-18T09:55:42;99012.81;;;26.32;13.49
42691;BME280;28306;55.744;37.578;2023-02-18T09:58:14;98999.69;;;26.34;13.51
42691;BME280;28306;55.744;37.578;2023-02-18T10:00:41;98981.94;;;26.37;13.76
42691;BME280;28306;55.744;37.578;2023-02-18T10:03:12;98973.47;;;26.38;13.49
42691;BME280;28306;55.744;37.578;2023-02-18T10:05:40;98969.31;;;26.41;13.67
42691;BME280;28306;55.744;37.578;2023-02-18T10:08:13;98970.97;;;26.42;13.63
42691;BME280;28306;55.744;37.578;2023-02-18T10:10:42;98976.13;;;26.43;13.39
42691;BME280;28306;55.744;37.578;2023-02-18T10:13:15;98964.13;;;26.44;13.49
42691;BME280;28306;55.744;37.578;2023-02-18T10:15:40;98962.50;;;26.43;13.43
42691;BME280;28306;55.744;37.578;2023-02-18T10:20:44;98951.06;;;26.41;13.48
42691;BME280;28306;55.744;37.578;2023-02-18T10:23:10;98947.22;;;26.42;13.55
42691;BME280;28306;55.744;37.578;2023-02-18T10:25:37;98942.88;;;26.41;13.64
42691;BME280;28306;55.744;37.578;2023-02-18T10:28:07;98937.44;;;26.41;13.61
42691;BME280;28306;55.744;37.578;2023-02-18T10:30:34;98925.41;;;26.42;13.43
42691;BME280;28306;55.744;37.578;2023-02-18T10:33:45;98937.94;;;26.43;13.73
42691;BME280;28306;55.744;37.578;2023-02-18T10:36:00;98921.28;;;26.45;13.40
42691;BME280;28306;55.744;37.578;2023-02-18T10:44:34;98916.03;;;26.49;13.52
42691;BME280;28306;55.744;37.578;2023-02-18T10:50:02;98909.50;;;26.50;13.52
42691;BME280;28306;55.744;37.578;2023-02-18T10:52:28;98906.75;;;26.50;13.42
42691;BME280;28306;55.744;37.578;2023-02-18T10:57:23;98909.41;;;26.55;13.76
42691;BME280;28306;55.744;37.578;2023-02-18T11:00:03;98909.66;;;26.58;13.47
42691;BME280;28306;55.744;37.578;2023-02-18T11:02:39;98886.19;;;26.57;13.57
42691;BME280;28306;55.744;37.578;2023-02-18T11:05:26;98894.88;;;26.59;13.40
42691;BME280;28306;55.744;37.578;2023-02-18T11:07:52;98898.94;;;26.62;13.58
42691;BME280;28306;55.744;37.578;2023-02-18T11:10:25;98884.22;;;26.63;13.43
42691;BME280;28306;55.744;37.578;2023-02-18T11:12:59;98881.19;;;26.65;13.47
42691;BME280;28306;55.744;37.578;2023-02-18T11:15:26;98883.38;;;26.62;13.63
42691;BME280;28306;55.744;37.578;2023-02-18T11:17:54;98878.75;;;26.63;13.50
42691;BME280;28306;55.744;37.578;2023-02-18T11:20:33;98881.50;;;26.63;13.66
42691;BME280;28306;55.744;37.578;2023-02-18T11:25:35;98870.03;;;26.61;13.43
42691;BME280;28306;55.744;37.578;2023-02-18T11:28:02;98872.47;;;26.62;13.37
42691;BME280;28306;55.744;37.578;2023-02-18T11:30:41;98860.75;;;26.62;13.46
42691;BME280;28306;55.744;37.578;2023-02-18T11:33:30;98855.59;;;26.60;13.40
42691;BME280;28306;55.744;37.578;2023-02-18T11:35:57;98853.16;;;26.59;13.37
42691;BME280;28306;55.744;37.578;2023-02-18T11:39:24;98842.84;;;26.56;13.46
42691;BME280;28306;55.744;37.578;2023-02-18T11:41:37;98842.53;;;26.57;13.51
42691;BME280;28306;55.744;37.578;2023-02-18T11:44:05;98828.91;;;26.57;13.60
42691;BME280;28306;55.744;37.578;2023-02-18T11:46:32;98832.72;;;26.56;13.69
42691;BME280;28306;55.744;37.578;2023-02-18T11:49:09;98828.41;;;26.55;13.64
42691;BME280;28306;55.744;37.578;2023-02-18T11:51:35;98826.47;;;26.56;13.77
42691;BME280;28306;55.744;37.578;2023-02-18T11:54:05;98833.56;;;26.57;13.58
42691;BME280;28306;55.744;37.578;2023-02-18T11:56:53;98814.75;;;26.55;13.85
42691;BME280;28306;55.744;37.578;2023-02-18T11:59:19;98809.59;;;26.54;13.86
42691;BME280;28306;55.744;37.578;2023-02-18T12:01:45;98828.69;;;26.54;13.92
42691;BME280;28306;55.744;37.578;2023-02-18T12:04:15;98809.59;;;26.54;13.57
42691;BME280;28306;55.744;37.578;2023-02-18T12:09:25;98793.75;;;26.56;13.89
42691;BME280;28306;55.744;37.578;2023-02-18T12:11:54;98785.25;;;26.57;13.63
42691;BME280;28306;55.744;37.578;2023-02-18T12:14:21;98795.66;;;26.55;13.66
42691;BME280;28306;55.744;37.578;2023-02-18T12:27:12;98777.22;;;26.47;13.92
42691;BME280;28306;55.744;37.578;2023-02-18T12:42:44;98769.13;;;26.42;13.83
42691;BME280;28306;55.744;37.578;2023-02-18T12:45:19;98769.94;;;26.42;13.88
42691;BME280;28306;55.744;37.578;2023-02-18T13:13:36;98728.16;;;26.28;14.23
42691;BME280;28306;55.744;37.578;2023-02-18T13:16:04;98729.00;;;26.29;14.04
42691;BME280;28306;55.744;37.578;2023-02-18T13:18:34;98723.53;;;26.29;13.89
42691;BME280;28306;55.744;37.578;2023-02-18T13:21:19;98732.03;;;26.27;14.13
42691;BME280;28306;55.744;37.578;2023-02-18T13:24:03;98732.31;;;26.25;14.05
42691;BME280;28306;55.744;37.578;2023-02-18T13:26:30;98724.72;;;26.22;13.99
42691;BME280;28306;55.744;37.578;2023-02-18T13:29:06;98723.09;;;26.21;14.08
42691;BME280;28306;55.744;37.578;2023-02-18T13:34:11;98718.25;;;26.18;14.12
42691;BME280;28306;55.744;37.578;2023-02-18T13:36:56;98716.91;;;26.16;14.23
42691;BME280;28306;55.744;37.578;2023-02-18T13:39:26;98708.72;;;26.16;14.07
42691;BME280;28306;55.744;37.578;2023-02-18T13:47:51;98696.22;;;26.15;14.18
42691;BME280;28306;55.744;37.578;2023-02-18T13:58:12;98694.59;;;26.14;14.17
42691;BME280;28306;55.744;37.578;2023-02-18T14:00:40;98692.16;;;26.12;14.33
42691;BME280;28306;55.744;37.578;2023-02-18T14:03:30;98684.28;;;26.11;14.29
42691;BME280;28306;55.744;37.578;2023-02-18T14:05:57;98678.03;;;26.10;14.13
42691;BME280;28306;55.744;37.578;2023-02-18T14:08:33;98675.59;;;26.08;14.20
42691;BME280;28306;55.744;37.578;2023-02-18T14:13:38;98679.13;;;26.09;14.06
42691;BME280;28306;55.744;37.578;2023-02-18T14:16:07;98680.75;;;26.10;14.11
42691;BME280;28306;55.744;37.578;2023-02-18T14:31:00;98659.84;;;26.05;14.17
42691;BME280;28306;55.744;37.578;2023-02-18T14:33:26;98658.22;;;26.04;14.41
42691;BME280;28306;55.744;37.578;2023-02-18T14:36:42;98655.78;;;26.03;14.39
42691;BME280;28306;55.744;37.578;2023-02-18T14:41:21;98661.22;;;26.03;14.11
42691;BME280;28306;55.744;37.578;2023-02-18T14:51:34;98640.22;;;26.03;14.37
42691;BME280;28306;55.744;37.578;2023-02-18T14:54:03;98638.63;;;26.02;14.12
42691;BME280;28306;55.744;37.578;2023-02-18T14:56:30;98642.44;;;26.01;14.42
42691;BME280;28306;55.744;37.578;2023-02-18T14:58:57;98628.31;;;25.99;14.16
42691;BME280;28306;55.744;37.578;2023-02-18T15:01:26;98627.50;;;25.99;14.14
42691;BME280;28306;55.744;37.578;2023-02-18T15:03:53;98625.09;;;25.97;14.27
42691;BME280;28306;55.744;37.578;2023-02-18T15:08:48;98625.09;;;25.97;14.34
42691;BME280;28306;55.744;37.578;2023-02-18T15:11:13;98620.44;;;25.98;14.20
42691;BME280;28306;55.744;37.578;2023-02-18T15:13:41;98617.19;;;25.96;14.41
42691;BME280;28306;55.744;37.578;2023-02-18T15:16:15;98614.97;;;25.98;14.29
42691;BME280;28306;55.744;37.578;2023-02-18T15:18:44;98616.63;;;25.99;14.44
42691;BME280;28306;55.744;37.578;2023-02-18T15:21:16;98597.53;;;25.99;14.32
42691;BME280;28306;55.744;37.578;2023-02-18T15:23:43;98609.22;;;25.99;14.16
42691;BME280;28306;55.744;37.578;2023-02-18T15:26:11;98603.78;;;25.99;14.22
42691;BME280;28306;55.744;37.578;2023-02-18T15:28:40;98593.97;;;25.98;14.22
42691;BME280;28306;55.744;37.578;2023-02-18T15:31:07;98597.84;;;25.97;14.26